sensor_id;sensor_type;location;lat;lon;timestamp;temperature;humidity
27647;DHT22;42229;51.230;6.240;2023-05-07T00:00:44;16.90;99.90
27647;DHT22;42229;51.230;6.240;2023-05-07T00:03:10;16.90;99.90
27647;DHT22;42229;51.230;6.240;2023-05-07T00:05:37;16.90;99.90
27647;DHT22;42229;51.230;6.240;2023-05-07T00:08:03;16.90;99.90
27647;DHT22;42229;51.230;6.240;2023-05-07T00:10:30;16.80;99.90
27647;DHT22;42229;51.230;6.240;2023-05-07T00:12:56;16.80;99.90
27647;DHT22;42229;51.230;6.240;2023-05-07T00:15:22;16.80;99.90
27647;DHT22;42229;51.230;6.240;2023-05-07T00:17:48;16.70;99.90
27647;DHT22;42229;51.230;6.240;2023-05-07T00:20:15;16.70;99.90
27647;DHT22;42229;51.230;6.240;2023-05-07T00:22:41;16.60;99.90
27647;DHT22;42229;51.230;6.240;2023-05-07T00:25:07;16.70;99.90
27647;DHT22;42229;51.230;6.240;2023-05-07T00:27:34;16.60;99.90
27647;DHT22;42229;51.230;6.240;2023-05-07T00:30:00;16.60;99.90
27647;DHT22;42229;51.230;6.240;2023-05-07T00:32:26;16.60;99.90
27647;DHT22;42229;51.230;6.240;2023-05-07T00:34:52;16.60;99.90
27647;DHT22;42229;51.230;6.240;2023-05-07T00:37:18;16.60;99.90
27647;DHT22;42229;51.230;6.240;2023-05-07T00:39:45;16.60;99.90
27647;DHT22;42229;51.230;6.240;2023-05-07T00:42:11;16.60;99.90
27647;DHT22;42229;51.230;6.240;2023-05-07T00:44:37;16.60;99.90
27647;DHT22;42229;51.230;6.240;2023-05-07T00:47:03;16.60;99.90
27647;DHT22;42229;51.230;6.240;2023-05-07T00:49:34;16.60;99.90
27647;DHT22;42229;51.230;6.240;2023-05-07T00:52:04;16.50;99.90
27647;DHT22;42229;51.230;6.240;2023-05-07T00:54:32;16.60;99.90
27647;DHT22;42229;51.230;6.240;2023-05-07T00:56:58;16.60;99.90
27647;DHT22;42229;51.230;6.240;2023-05-07T00:59:24;16.50;99.90
27647;DHT22;42229;51.230;6.240;2023-05-07T01:01:51;16.60;99.90
27647;DHT22;42229;51.230;6.240;2023-05-07T01:04:17;16.60;99.90
27647;DHT22;42229;51.230;6.240;2023-05-07T01:06:44;16.50;99.90
27647;DHT22;42229;51.230;6.240;2023-05-07T01:09:11;16.50;99.90
27647;DHT22;42229;51.230;6.240;2023-05-07T01:11:38;16.60;99.90
27647;DHT22;42229;51.230;6.240;2023-05-07T01:14:04;16.60;99.90
27647;DHT22;42229;51.230;6.240;2023-05-07T01:16:31;16.60;99.90
27647;DHT22;42229;51.230;6.240;2023-05-07T01:18:57;16.60;99.90
27647;DHT22;42229;51.230;6.240;2023-05-07T01:21:25;16.60;99.90
27647;DHT22;42229;51.230;6.240;2023-05-07T01:23:54;16.70;99.90
27647;DHT22;42229;51.230;6.240;2023-05-07T01:26:21;16.60;99.90
27647;DHT22;42229;51.230;6.240;2023-05-07T01:28:48;16.60;99.90
27647;DHT22;42229;51.230;6.240;2023-05-07T01:31:14;16.60;99.90
27647;DHT22;42229;51.230;6.240;2023-05-07T01:33:42;16.60;99.90
27647;DHT22;42229;51.230;6.240;2023-05-07T01:36:10;16.60;99.90
27647;DHT22;42229;51.230;6.240;2023-05-07T01:38:38;16.60;99.90
27647;DHT22;42229;51.230;6.240;2023-05-07T01:41:05;16.60;99.90
27647;DHT22;42229;51.230;6.240;2023-05-07T01:43:33;16.60;99.90
27647;DHT22;42229;51.230;6.240;2023-05-07T01:45:59;16.60;99.90
27647;DHT22;42229;51.230;6.240;2023-05-07T01:48:26;16.60;99.90
27647;DHT22;42229;51.230;6.240;2023-05-07T01:50:52;16.60;99.90
27647;DHT22;42229;51.230;6.240;2023-05-07T01:53:19;16.60;99.90
27647;DHT22;42229;51.230;6.240;2023-05-07T01:55:45;16.60;99.90
27647;DHT22;42229;51.230;6.240;2023-05-07T01:58:11;16.60;99.90
27647;DHT22;42229;51.230;6.240;2023-05-07T02:00:38;16.50;99.90
27647;DHT22;42229;51.230;6.240;2023-05-07T02:03:04;16.50;99.90
27647;DHT22;42229;51.230;6.240;2023-05-07T02:05:41;16.50;99.90
27647;DHT22;42229;51.230;6.240;2023-05-07T02:08:15;16.50;99.90
27647;DHT22;42229;51.230;6.240;2023-05-07T02:10:41;16.50;99.90
27647;DHT22;42229;51.230;6.240;2023-05-07T02:13:07;16.50;99.90
27647;DHT22;42229;51.230;6.240;2023-05-07T02:15:34;16.40;99.90
27647;DHT22;42229;51.230;6.240;2023-05-07T02:18:02;16.40;99.90
27647;DHT22;42229;51.230;6.240;2023-05-07T02:20:30;16.40;99.90
27647;DHT22;42229;51.230;6.240;2023-05-07T02:22:57;16.40;99.90
27647;DHT22;42229;51.230;6.240;2023-05-07T02:25:23;16.40;99.90
27647;DHT22;42229;51.230;6.240;2023-05-07T02:27:50;16.30;99.90
27647;DHT22;42229;51.230;6.240;2023-05-07T02:30:17;16.30;99.90
27647;DHT22;42229;51.230;6.240;2023-05-07T02:32:43;16.30;99.90
27647;DHT22;42229;51.230;6.240;2023-05-07T02:35:09;16.30;99.90
27647;DHT22;42229;51.230;6.240;2023-05-07T02:37:36;16.30;99.90
27647;DHT22;42229;51.230;6.240;2023-05-07T02:40:02;16.30;99.90
27647;DHT22;42229;51.230;6.240;2023-05-07T02:42:30;16.20;99.90
27647;DHT22;42229;51.230;6.240;2023-05-07T02:44:56;16.20;99.90
27647;DHT22;42229;51.230;6.240;2023-05-07T02:47:23;16.20;99.90
27647;DHT22;42229;51.230;6.240;2023-05-07T02:49:49;16.20;99.90
27647;DHT22;42229;51.230;6.240;2023-05-07T02:52:15;16.20;99.90
27647;DHT22;42229;51.230;6.240;2023-05-07T02:54:41;16.20;99.90
27647;DHT22;42229;51.230;6.240;2023-05-07T02:57:08;16.10;99.90
27647;DHT22;42229;51.230;6.240;2023-05-07T02:59:34;16.20;99.90
27647;DHT22;42229;51.230;6.240;2023-05-07T03:02:01;16.20;99.90
27647;DHT22;42229;51.230;6.240;2023-05-07T03:04:27;16.20;99.90
27647;DHT22;42229;51.230;6.240;2023-05-07T03:06:53;16.10;99.90
27647;DHT22;42229;51.230;6.240;2023-05-07T03:09:19;16.20;99.90
27647;DHT22;42229;51.230;6.240;2023-05-07T03:11:45;16.20;99.90
27647;DHT22;42229;51.230;6.240;2023-05-07T03:14:12;16.10;99.90
27647;DHT22;42229;51.230;6.240;2023-05-07T03:16:38;16.10;99.90
27647;DHT22;42229;51.230;6.240;2023-05-07T03:19:05;16.20;99.90
27647;DHT22;42229;51.230;6.240;2023-05-07T03:21:31;16.20;99.90
27647;DHT22;42229;51.230;6.240;2023-05-07T03:23:59;16.20;99.90
27647;DHT22;42229;51.230;6.240;2023-05-07T03:26:26;16.20;99.90
27647;DHT22;42229;51.230;6.240;2023-05-07T03:28:52;16.20;99.90
27647;DHT22;42229;51.230;6.240;2023-05-07T03:31:18;16.20;99.90
27647;DHT22;42229;51.230;6.240;2023-05-07T03:33:51;16.10;99.90
27647;DHT22;42229;51.230;6.240;2023-05-07T03:36:21;16.10;99.90
27647;DHT22;42229;51.230;6.240;2023-05-07T03:38:49;16.10;99.90
27647;DHT22;42229;51.230;6.240;2023-05-07T03:41:19;16.10;99.90
27647;DHT22;42229;51.230;6.240;2023-05-07T03:43:46;16.10;99.90
27647;DHT22;42229;51.230;6.240;2023-05-07T03:46:13;16.10;99.90
27647;DHT22;42229;51.230;6.240;2023-05-07T03:48:40;16.10;99.90
27647;DHT22;42229;51.230;6.240;2023-05-07T03:51:06;16.10;99.90
27647;DHT22;42229;51.230;6.240;2023-05-07T03:53:33;16.10;99.90
27647;DHT22;42229;51.230;6.240;2023-05-07T03:56:00;16.10;99.90
27647;DHT22;42229;51.230;6.240;2023-05-07T03:58:27;16.10;99.90
27647;DHT22;42229;51.230;6.240;2023-05-07T04:00:57;16.10;99.90
27647;DHT22;42229;51.230;6.240;2023-05-07T04:03:27;16.00;99.90
27647;DHT22;42229;51.230;6.240;2023-05-07T04:05:57;16.00;99.90
27647;DHT22;42229;51.230;6.240;2023-05-07T04:08:24;16.00;99.90
27647;DHT22;42229;51.230;6.240;2023-05-07T04:10:56;16.00;99.90
27647;DHT22;42229;51.230;6.240;2023-05-07T04:13:24;16.00;99.90
27647;DHT22;42229;51.230;6.240;2023-05-07T04:15:52;16.00;99.90
27647;DHT22;42229;51.230;6.240;2023-05-07T04:18:19;16.00;99.90
27647;DHT22;42229;51.230;6.240;2023-05-07T04:20:47;16.00;99.90
27647;DHT22;42229;51.230;6.240;2023-05-07T04:23:15;16.00;99.90
27647;DHT22;42229;51.230;6.240;2023-05-07T04:25:41;16.00;99.90
27647;DHT22;42229;51.230;6.240;2023-05-07T04:28:16;16.00;99.90
27647;DHT22;42229;51.230;6.240;2023-05-07T04:30:42;16.00;99.90
27647;DHT22;42229;51.230;6.240;2023-05-07T04:33:10;16.00;99.90
27647;DHT22;42229;51.230;6.240;2023-05-07T04:35:39;16.00;99.90
27647;DHT22;42229;51.230;6.240;2023-05-07T04:38:05;16.00;99.90
27647;DHT22;42229;51.230;6.240;2023-05-07T04:40:32;16.00;99.90
27647;DHT22;42229;51.230;6.240;2023-05-07T04:43:00;16.00;99.90
27647;DHT22;42229;51.230;6.240;2023-05-07T04:45:30;16.00;99.90
27647;DHT22;42229;51.230;6.240;2023-05-07T04:47:56;16.00;99.90
27647;DHT22;42229;51.230;6.240;2023-05-07T04:50:22;16.10;99.90
27647;DHT22;42229;51.230;6.240;2023-05-07T04:52:51;16.10;99.90
27647;DHT22;42229;51.230;6.240;2023-05-07T04:55:17;16.10;99.90
27647;DHT22;42229;51.230;6.240;2023-05-07T04:57:44;16.10;99.90
27647;DHT22;42229;51.230;6.240;2023-05-07T05:00:13;16.20;99.90
27647;DHT22;42229;51.230;6.240;2023-05-07T05:02:47;16.20;99.90
27647;DHT22;42229;51.230;6.240;2023-05-07T05:05:18;16.20;99.90
27647;DHT22;42229;51.230;6.240;2023-05-07T05:07:45;16.20;99.90
27647;DHT22;42229;51.230;6.240;2023-05-07T05:10:12;16.30;99.90
27647;DHT22;42229;51.230;6.240;2023-05-07T05:12:40;16.30;99.90
27647;DHT22;42229;51.230;6.240;2023-05-07T05:15:07;16.30;99.90
27647;DHT22;42229;51.230;6.240;2023-05-07T05:17:34;16.40;99.90
27647;DHT22;42229;51.230;6.240;2023-05-07T05:20:03;16.40;99.90
27647;DHT22;42229;51.230;6.240;2023-05-07T05:22:30;16.40;99.90
27647;DHT22;42229;51.230;6.240;2023-05-07T05:24:58;16.50;99.90
27647;DHT22;42229;51.230;6.240;2023-05-07T05:27:24;16.50;99.90
27647;DHT22;42229;51.230;6.240;2023-05-07T05:29:51;16.60;99.90
27647;DHT22;42229;51.230;6.240;2023-05-07T05:32:17;16.60;99.90
27647;DHT22;42229;51.230;6.240;2023-05-07T05:34:44;16.60;99.90
27647;DHT22;42229;51.230;6.240;2023-05-07T05:37:11;16.70;99.90
27647;DHT22;42229;51.230;6.240;2023-05-07T05:39:37;16.70;99.90
27647;DHT22;42229;51.230;6.240;2023-05-07T05:42:04;16.80;99.90
27647;DHT22;42229;51.230;6.240;2023-05-07T05:44:33;16.80;99.90
27647;DHT22;42229;51.230;6.240;2023-05-07T05:47:00;16.80;99.90
27647;DHT22;42229;51.230;6.240;2023-05-07T05:49:27;16.80;99.90
27647;DHT22;42229;51.230;6.240;2023-05-07T05:51:53;16.90;99.90
27647;DHT22;42229;51.230;6.240;2023-05-07T05:54:20;16.80;99.90
27647;DHT22;42229;51.230;6.240;2023-05-07T05:56:47;16.90;99.90
27647;DHT22;42229;51.230;6.240;2023-05-07T05:59:14;16.90;99.90
27647;DHT22;42229;51.230;6.240;2023-05-07T06:01:40;17.00;99.90
27647;DHT22;42229;51.230;6.240;2023-05-07T06:04:06;17.10;99.90
27647;DHT22;42229;51.230;6.240;2023-05-07T06:06:33;17.10;99.90
27647;DHT22;42229;51.230;6.240;2023-05-07T06:09:01;17.20;99.90
27647;DHT22;42229;51.230;6.240;2023-05-07T06:11:35;17.30;99.90
27647;DHT22;42229;51.230;6.240;2023-05-07T06:14:01;17.30;99.90
27647;DHT22;42229;51.230;6.240;2023-05-07T06:16:29;17.40;99.90
27647;DHT22;42229;51.230;6.240;2023-05-07T06:18:56;17.50;99.90
27647;DHT22;42229;51.230;6.240;2023-05-07T06:21:22;17.60;99.90
27647;DHT22;42229;51.230;6.240;2023-05-07T06:23:48;17.70;99.90
27647;DHT22;42229;51.230;6.240;2023-05-07T06:26:15;17.80;99.90
27647;DHT22;42229;51.230;6.240;2023-05-07T06:28:45;17.80;99.90
27647;DHT22;42229;51.230;6.240;2023-05-07T06:31:14;17.90;99.90
27647;DHT22;42229;51.230;6.240;2023-05-07T06:33:44;18.00;99.90
27647;DHT22;42229;51.230;6.240;2023-05-07T06:36:11;18.10;99.90
27647;DHT22;42229;51.230;6.240;2023-05-07T06:38:38;18.20;99.90
27647;DHT22;42229;51.230;6.240;2023-05-07T06:41:08;18.30;99.90
27647;DHT22;42229;51.230;6.240;2023-05-07T06:43:34;18.30;99.90
27647;DHT22;42229;51.230;6.240;2023-05-07T06:46:26;18.40;99.90
27647;DHT22;42229;51.230;6.240;2023-05-07T06:48:53;18.50;99.90
27647;DHT22;42229;51.230;6.240;2023-05-07T06:51:20;18.60;99.90
27647;DHT22;42229;51.230;6.240;2023-05-07T06:53:46;18.70;99.90
27647;DHT22;42229;51.230;6.240;2023-05-07T06:56:12;18.80;99.90
27647;DHT22;42229;51.230;6.240;2023-05-07T06:58:39;18.80;99.90
27647;DHT22;42229;51.230;6.240;2023-05-07T07:01:06;18.90;99.90
27647;DHT22;42229;51.230;6.240;2023-05-07T07:03:34;19.00;99.90
27647;DHT22;42229;51.230;6.240;2023-05-07T07:06:00;19.10;99.90
27647;DHT22;42229;51.230;6.240;2023-05-07T07:08:29;19.20;99.90
27647;DHT22;42229;51.230;6.240;2023-05-07T07:10:56;19.30;99.90
27647;DHT22;42229;51.230;6.240;2023-05-07T07:13:22;19.40;99.90
27647;DHT22;42229;51.230;6.240;2023-05-07T07:15:48;19.50;99.90
27647;DHT22;42229;51.230;6.240;2023-05-07T07:18:14;19.60;99.90
27647;DHT22;42229;51.230;6.240;2023-05-07T07:20:42;19.70;99.90
27647;DHT22;42229;51.230;6.240;2023-05-07T07:23:10;19.80;99.90
27647;DHT22;42229;51.230;6.240;2023-05-07T07:25:36;19.90;99.90
27647;DHT22;42229;51.230;6.240;2023-05-07T07:28:03;20.00;99.90
27647;DHT22;42229;51.230;6.240;2023-05-07T07:30:29;20.10;99.90
27647;DHT22;42229;51.230;6.240;2023-05-07T07:32:56;20.20;99.90
27647;DHT22;42229;51.230;6.240;2023-05-07T07:35:29;20.30;99.90
27647;DHT22;42229;51.230;6.240;2023-05-07T07:37:55;20.40;99.90
27647;DHT22;42229;51.230;6.240;2023-05-07T07:40:22;20.50;99.90
27647;DHT22;42229;51.230;6.240;2023-05-07T07:42:48;20.60;99.90
27647;DHT22;42229;51.230;6.240;2023-05-07T07:45:15;20.70;99.90
27647;DHT22;42229;51.230;6.240;2023-05-07T07:47:46;20.80;99.90
27647;DHT22;42229;51.230;6.240;2023-05-07T07:50:12;20.90;99.90
27647;DHT22;42229;51.230;6.240;2023-05-07T07:52:39;21.00;99.90
27647;DHT22;42229;51.230;6.240;2023-05-07T07:55:07;21.10;99.90
27647;DHT22;42229;51.230;6.240;2023-05-07T07:57:34;21.20;99.90
27647;DHT22;42229;51.230;6.240;2023-05-07T08:00:00;21.20;99.90
27647;DHT22;42229;51.230;6.240;2023-05-07T08:02:30;21.30;99.90
27647;DHT22;42229;51.230;6.240;2023-05-07T08:04:57;21.50;99.90
27647;DHT22;42229;51.230;6.240;2023-05-07T08:07:23;21.50;99.90
27647;DHT22;42229;51.230;6.240;2023-05-07T08:09:50;21.60;99.90
27647;DHT22;42229;51.230;6.240;2023-05-07T08:12:21;21.70;99.90
27647;DHT22;42229;51.230;6.240;2023-05-07T08:14:48;21.80;99.90
27647;DHT22;42229;51.230;6.240;2023-05-07T08:17:14;21.90;99.90
27647;DHT22;42229;51.230;6.240;2023-05-07T08:19:42;21.90;99.90
27647;DHT22;42229;51.230;6.240;2023-05-07T08:22:11;22.00;99.90
27647;DHT22;42229;51.230;6.240;2023-05-07T08:24:38;22.10;99.90
27647;DHT22;42229;51.230;6.240;2023-05-07T08:27:05;22.10;99.90
27647;DHT22;42229;51.230;6.240;2023-05-07T08:29:32;22.20;99.90
27647;DHT22;42229;51.230;6.240;2023-05-07T08:31:59;22.30;99.90
27647;DHT22;42229;51.230;6.240;2023-05-07T08:34:26;22.30;99.90
27647;DHT22;42229;51.230;6.240;2023-05-07T08:36:53;22.40;99.90
27647;DHT22;42229;51.230;6.240;2023-05-07T08:39:23;22.50;99.90
27647;DHT22;42229;51.230;6.240;2023-05-07T08:41:52;22.60;99.90
27647;DHT22;42229;51.230;6.240;2023-05-07T08:44:21;22.70;99.90
27647;DHT22;42229;51.230;6.240;2023-05-07T08:46:48;22.80;99.90
27647;DHT22;42229;51.230;6.240;2023-05-07T08:49:18;22.90;99.90
27647;DHT22;42229;51.230;6.240;2023-05-07T08:51:44;23.00;99.90
27647;DHT22;42229;51.230;6.240;2023-05-07T08:54:11;23.00;99.90
27647;DHT22;42229;51.230;6.240;2023-05-07T08:56:38;23.10;99.90
27647;DHT22;42229;51.230;6.240;2023-05-07T08:59:05;23.20;99.90
27647;DHT22;42229;51.230;6.240;2023-05-07T09:01:32;23.30;99.90
27647;DHT22;42229;51.230;6.240;2023-05-07T09:03:58;23.40;99.90
27647;DHT22;42229;51.230;6.240;2023-05-07T09:06:27;23.50;99.90
27647;DHT22;42229;51.230;6.240;2023-05-07T09:08:53;23.50;99.90
27647;DHT22;42229;51.230;6.240;2023-05-07T09:11:22;23.70;99.90
27647;DHT22;42229;51.230;6.240;2023-05-07T09:13:56;23.70;99.90
27647;DHT22;42229;51.230;6.240;2023-05-07T09:16:29;23.80;99.90
27647;DHT22;42229;51.230;6.240;2023-05-07T09:18:58;23.90;99.90
27647;DHT22;42229;51.230;6.240;2023-05-07T09:21:26;24.00;99.90
27647;DHT22;42229;51.230;6.240;2023-05-07T09:23:55;24.10;99.90
27647;DHT22;42229;51.230;6.240;2023-05-07T09:26:24;24.20;99.90
27647;DHT22;42229;51.230;6.240;2023-05-07T09:28:51;24.30;99.90
27647;DHT22;42229;51.230;6.240;2023-05-07T09:31:18;24.40;99.90
27647;DHT22;42229;51.230;6.240;2023-05-07T09:33:45;24.50;99.90
27647;DHT22;42229;51.230;6.240;2023-05-07T09:36:13;24.60;99.90
27647;DHT22;42229;51.230;6.240;2023-05-07T09:38:41;24.60;99.90
27647;DHT22;42229;51.230;6.240;2023-05-07T09:41:08;24.70;99.90
27647;DHT22;42229;51.230;6.240;2023-05-07T09:43:42;24.70;99.90
27647;DHT22;42229;51.230;6.240;2023-05-07T09:46:12;24.80;99.90
27647;DHT22;42229;51.230;6.240;2023-05-07T09:48:42;24.90;99.90
27647;DHT22;42229;51.230;6.240;2023-05-07T09:51:12;24.90;99.90
27647;DHT22;42229;51.230;6.240;2023-05-07T09:53:44;24.90;99.90
27647;DHT22;42229;51.230;6.240;2023-05-07T09:56:12;25.00;99.90
27647;DHT22;42229;51.230;6.240;2023-05-07T09:58:40;25.00;99.90
27647;DHT22;42229;51.230;6.240;2023-05-07T10:01:07;25.00;99.90
27647;DHT22;42229;51.230;6.240;2023-05-07T10:03:34;25.00;99.90
27647;DHT22;42229;51.230;6.240;2023-05-07T10:06:04;25.00;99.90
27647;DHT22;42229;51.230;6.240;2023-05-07T10:08:31;25.00;99.90
27647;DHT22;42229;51.230;6.240;2023-05-07T10:11:00;25.00;99.90
27647;DHT22;42229;51.230;6.240;2023-05-07T10:13:28;25.00;99.90
27647;DHT22;42229;51.230;6.240;2023-05-07T10:15:57;25.10;99.90
27647;DHT22;42229;51.230;6.240;2023-05-07T10:18:26;25.10;99.90
27647;DHT22;42229;51.230;6.240;2023-05-07T10:21:11;25.20;99.90
27647;DHT22;42229;51.230;6.240;2023-05-07T10:23:41;25.30;99.90
27647;DHT22;42229;51.230;6.240;2023-05-07T10:26:43;25.40;99.90
27647;DHT22;42229;51.230;6.240;2023-05-07T10:29:13;25.50;99.90
27647;DHT22;42229;51.230;6.240;2023-05-07T10:34:40;25.70;99.90
27647;DHT22;42229;51.230;6.240;2023-05-07T10:37:08;25.70;99.90
27647;DHT22;42229;51.230;6.240;2023-05-07T10:39:35;25.80;99.90
27647;DHT22;42229;51.230;6.240;2023-05-07T10:42:12;25.80;99.90
27647;DHT22;42229;51.230;6.240;2023-05-07T10:44:44;25.80;99.90
27647;DHT22;42229;51.230;6.240;2023-05-07T10:47:16;25.90;99.90
27647;DHT22;42229;51.230;6.240;2023-05-07T10:52:24;25.90;99.90
27647;DHT22;42229;51.230;6.240;2023-05-07T10:55:19;25.90;99.90
27647;DHT22;42229;51.230;6.240;2023-05-07T11:00:50;26.00;99.90
27647;DHT22;42229;51.230;6.240;2023-05-07T11:03:27;26.00;99.90
27647;DHT22;42229;51.230;6.240;2023-05-07T11:06:11;26.00;99.90
27647;DHT22;42229;51.230;6.240;2023-05-07T11:11:45;26.00;99.90
27647;DHT22;42229;51.230;6.240;2023-05-07T11:17:10;26.10;99.90
27647;DHT22;42229;51.230;6.240;2023-05-07T11:19:49;26.10;99.90
27647;DHT22;42229;51.230;6.240;2023-05-07T11:25:05;26.20;99.90
27647;DHT22;42229;51.230;6.240;2023-05-07T11:27:32;26.20;99.90
27647;DHT22;42229;51.230;6.240;2023-05-07T11:29:59;26.20;99.90
27647;DHT22;42229;51.230;6.240;2023-05-07T11:32:27;26.20;99.90
27647;DHT22;42229;51.230;6.240;2023-05-07T11:34:54;26.20;99.90
27647;DHT22;42229;51.230;6.240;2023-05-07T11:37:22;26.20;99.90
27647;DHT22;42229;51.230;6.240;2023-05-07T11:40:03;26.20;99.90
27647;DHT22;42229;51.230;6.240;2023-05-07T11:42:33;26.20;99.90
27647;DHT22;42229;51.230;6.240;2023-05-07T11:45:00;26.30;99.90
27647;DHT22;42229;51.230;6.240;2023-05-07T11:47:29;26.20;99.90
27647;DHT22;42229;51.230;6.240;2023-05-07T11:49:56;26.30;99.90
27647;DHT22;42229;51.230;6.240;2023-05-07T11:52:23;26.20;99.90
27647;DHT22;42229;51.230;6.240;2023-05-07T11:54:50;26.20;99.90
27647;DHT22;42229;51.230;6.240;2023-05-07T11:57:17;26.20;99.90
27647;DHT22;42229;51.230;6.240;2023-05-07T11:59:43;26.20;99.90
27647;DHT22;42229;51.230;6.240;2023-05-07T12:02:16;26.20;99.90
27647;DHT22;42229;51.230;6.240;2023-05-07T12:04:43;26.10;99.90
27647;DHT22;42229;51.230;6.240;2023-05-07T12:07:13;26.10;99.90
27647;DHT22;42229;51.230;6.240;2023-05-07T12:09:44;26.10;99.90
27647;DHT22;42229;51.230;6.240;2023-05-07T12:12:11;26.10;99.90
27647;DHT22;42229;51.230;6.240;2023-05-07T12:14:41;26.00;99.90
27647;DHT22;42229;51.230;6.240;2023-05-07T12:17:08;25.90;99.90
27647;DHT22;42229;51.230;6.240;2023-05-07T12:19:36;25.80;99.90
27647;DHT22;42229;51.230;6.240;2023-05-07T12:22:03;25.70;99.90
27647;DHT22;42229;51.230;6.240;2023-05-07T12:24:45;25.70;99.90
27647;DHT22;42229;51.230;6.240;2023-05-07T12:27:16;25.60;99.90
27647;DHT22;42229;51.230;6.240;2023-05-07T12:29:44;25.50;99.90
27647;DHT22;42229;51.230;6.240;2023-05-07T12:32:15;25.50;99.90
27647;DHT22;42229;51.230;6.240;2023-05-07T12:34:43;25.40;99.90
27647;DHT22;42229;51.230;6.240;2023-05-07T12:37:09;25.40;99.90
27647;DHT22;42229;51.230;6.240;2023-05-07T12:39:36;25.30;99.90
27647;DHT22;42229;51.230;6.240;2023-05-07T12:42:02;25.30;99.90
27647;DHT22;42229;51.230;6.240;2023-05-07T12:44:29;25.30;99.90
27647;DHT22;42229;51.230;6.240;2023-05-07T12:46:56;25.30;99.90
27647;DHT22;42229;51.230;6.240;2023-05-07T12:49:23;25.20;99.90
27647;DHT22;42229;51.230;6.240;2023-05-07T12:51:50;25.20;99.90
27647;DHT22;42229;51.230;6.240;2023-05-07T12:54:29;25.20;99.90
27647;DHT22;42229;51.230;6.240;2023-05-07T12:57:03;25.20;99.90
27647;DHT22;42229;51.230;6.240;2023-05-07T12:59:34;25.10;99.90
27647;DHT22;42229;51.230;6.240;2023-05-07T13:02:02;25.10;99.90
27647;DHT22;42229;51.230;6.240;2023-05-07T13:04:28;25.10;99.90
27647;DHT22;42229;51.230;6.240;2023-05-07T13:06:54;25.10;99.90
27647;DHT22;42229;51.230;6.240;2023-05-07T13:09:21;25.10;99.90
27647;DHT22;42229;51.230;6.240;2023-05-07T13:11:47;25.00;99.90
27647;DHT22;42229;51.230;6.240;2023-05-07T13:14:13;25.00;99.90
27647;DHT22;42229;51.230;6.240;2023-05-07T13:16:39;25.00;99.90
27647;DHT22;42229;51.230;6.240;2023-05-07T13:19:06;25.00;99.90
27647;DHT22;42229;51.230;6.240;2023-05-07T13:21:32;25.10;99.90
27647;DHT22;42229;51.230;6.240;2023-05-07T13:24:03;25.10;99.90
27647;DHT22;42229;51.230;6.240;2023-05-07T13:26:30;25.10;99.90
27647;DHT22;42229;51.230;6.240;2023-05-07T13:28:57;25.10;99.90
27647;DHT22;42229;51.230;6.240;2023-05-07T13:31:24;25.10;99.90
27647;DHT22;42229;51.230;6.240;2023-05-07T13:33:50;25.20;99.90
27647;DHT22;42229;51.230;6.240;2023-05-07T13:36:18;25.30;99.90
27647;DHT22;42229;51.230;6.240;2023-05-07T13:38:44;25.40;99.90
27647;DHT22;42229;51.230;6.240;2023-05-07T13:41:10;25.40;99.90
27647;DHT22;42229;51.230;6.240;2023-05-07T13:43:38;25.50;99.90
27647;DHT22;42229;51.230;6.240;2023-05-07T13:46:04;25.50;99.90
27647;DHT22;42229;51.230;6.240;2023-05-07T13:48:31;25.50;99.90
27647;DHT22;42229;51.230;6.240;2023-05-07T13:50:57;25.50;99.90
27647;DHT22;42229;51.230;6.240;2023-05-07T13:53:23;25.40;99.90
27647;DHT22;42229;51.230;6.240;2023-05-07T13:55:50;25.40;99.90
27647;DHT22;42229;51.230;6.240;2023-05-07T13:58:16;25.30;99.90
27647;DHT22;42229;51.230;6.240;2023-05-07T14:00:42;25.30;99.90
27647;DHT22;42229;51.230;6.240;2023-05-07T14:03:09;25.20;99.90
27647;DHT22;42229;51.230;6.240;2023-05-07T14:05:38;25.20;99.90
27647;DHT22;42229;51.230;6.240;2023-05-07T14:08:05;25.10;99.90
27647;DHT22;42229;51.230;6.240;2023-05-07T14:10:33;25.10;99.90
27647;DHT22;42229;51.230;6.240;2023-05-07T14:13:00;25.10;99.90
27647;DHT22;42229;51.230;6.240;2023-05-07T14:15:27;25.10;99.90
27647;DHT22;42229;51.230;6.240;2023-05-07T14:17:53;25.10;99.90
27647;DHT22;42229;51.230;6.240;2023-05-07T14:20:20;25.10;99.90
27647;DHT22;42229;51.230;6.240;2023-05-07T14:22:46;25.10;99.90
27647;DHT22;42229;51.230;6.240;2023-05-07T14:25:12;25.00;99.90
27647;DHT22;42229;51.230;6.240;2023-05-07T14:27:39;25.00;99.90
27647;DHT22;42229;51.230;6.240;2023-05-07T14:30:05;25.00;99.90
27647;DHT22;42229;51.230;6.240;2023-05-07T14:32:32;24.90;99.90
27647;DHT22;42229;51.230;6.240;2023-05-07T14:34:59;24.90;99.90
27647;DHT22;42229;51.230;6.240;2023-05-07T14:37:25;24.90;99.90
27647;DHT22;42229;51.230;6.240;2023-05-07T14:39:52;24.90;99.90
27647;DHT22;42229;51.230;6.240;2023-05-07T14:42:18;24.90;99.90
27647;DHT22;42229;51.230;6.240;2023-05-07T14:44:45;24.90;99.90
27647;DHT22;42229;51.230;6.240;2023-05-07T14:47:12;24.80;99.90
27647;DHT22;42229;51.230;6.240;2023-05-07T14:49:38;24.80;99.90
27647;DHT22;42229;51.230;6.240;2023-05-07T14:52:05;24.70;99.90
27647;DHT22;42229;51.230;6.240;2023-05-07T14:54:33;24.50;99.90
27647;DHT22;42229;51.230;6.240;2023-05-07T14:57:00;24.50;99.90
27647;DHT22;42229;51.230;6.240;2023-05-07T14:59:27;24.30;99.90
27647;DHT22;42229;51.230;6.240;2023-05-07T15:01:53;24.20;99.90
27647;DHT22;42229;51.230;6.240;2023-05-07T15:04:20;24.00;99.90
27647;DHT22;42229;51.230;6.240;2023-05-07T15:06:46;23.80;99.90
27647;DHT22;42229;51.230;6.240;2023-05-07T15:09:12;23.70;99.90
27647;DHT22;42229;51.230;6.240;2023-05-07T15:11:39;23.60;99.90
27647;DHT22;42229;51.230;6.240;2023-05-07T15:14:06;23.40;99.90
27647;DHT22;42229;51.230;6.240;2023-05-07T15:16:32;23.30;99.90
27647;DHT22;42229;51.230;6.240;2023-05-07T15:19:02;23.20;99.90
27647;DHT22;42229;51.230;6.240;2023-05-07T15:21:28;23.20;99.90
27647;DHT22;42229;51.230;6.240;2023-05-07T15:24:00;23.20;99.90
27647;DHT22;42229;51.230;6.240;2023-05-07T15:26:27;23.20;99.90
27647;DHT22;42229;51.230;6.240;2023-05-07T15:28:53;23.30;99.90
27647;DHT22;42229;51.230;6.240;2023-05-07T15:31:23;23.30;99.90
27647;DHT22;42229;51.230;6.240;2023-05-07T15:33:52;23.40;99.90
27647;DHT22;42229;51.230;6.240;2023-05-07T15:36:19;23.50;99.90
27647;DHT22;42229;51.230;6.240;2023-05-07T15:38:46;23.60;99.90
27647;DHT22;42229;51.230;6.240;2023-05-07T15:41:14;23.70;99.90
27647;DHT22;42229;51.230;6.240;2023-05-07T15:43:45;23.80;99.90
27647;DHT22;42229;51.230;6.240;2023-05-07T15:46:13;23.80;99.90
27647;DHT22;42229;51.230;6.240;2023-05-07T15:48:43;23.90;99.90
27647;DHT22;42229;51.230;6.240;2023-05-07T15:51:09;24.00;99.90